createdAt,value
2018-06-24T00:02:29.276Z,99.90
2018-06-24T00:04:58.523Z,99.90
2018-06-24T00:07:27.785Z,99.90
2018-06-24T00:09:57.052Z,99.90
2018-06-24T00:12:26.416Z,99.90
2018-06-24T00:14:55.677Z,99.90
2018-06-24T00:17:24.920Z,99.90
2018-06-24T00:19:54.322Z,99.90
2018-06-24T00:22:23.646Z,99.90
2018-06-24T00:24:52.924Z,99.90
2018-06-24T00:27:22.180Z,99.70
2018-06-24T00:29:51.447Z,99.40
2018-06-24T00:32:20.666Z,99.30
2018-06-24T00:34:50.115Z,99.10
2018-06-24T00:37:19.425Z,98.90
2018-06-24T00:39:48.729Z,98.80
2018-06-24T00:42:17.904Z,99.10
2018-06-24T00:44:47.265Z,98.70
2018-06-24T00:47:16.536Z,98.70
2018-06-24T00:49:45.861Z,98.70
2018-06-24T00:52:15.265Z,98.60
2018-06-24T00:54:44.589Z,98.80
2018-06-24T00:57:14.045Z,99.10
2018-06-24T00:59:54.301Z,99.00
2018-06-24T01:02:23.352Z,96.10
2018-06-24T01:04:52.797Z,99.90
2018-06-24T01:07:22.038Z,99.90
2018-06-24T01:09:51.237Z,99.90
2018-06-24T01:12:20.619Z,99.90
2018-06-24T01:14:50.081Z,99.90
2018-06-24T01:17:19.298Z,99.40
2018-06-24T01:19:48.792Z,99.20
2018-06-24T01:22:18.104Z,99.00
2018-06-24T01:24:47.312Z,99.00
2018-06-24T01:27:17.004Z,99.00
2018-06-24T01:29:46.460Z,98.80
2018-06-24T01:32:15.734Z,98.60
2018-06-24T01:34:45.157Z,98.50
2018-06-24T01:37:14.384Z,98.50
2018-06-24T01:39:43.556Z,98.30
2018-06-24T01:42:13.024Z,99.50
2018-06-24T01:44:42.298Z,99.90
2018-06-24T01:47:11.683Z,99.90
2018-06-24T01:49:40.963Z,99.80
2018-06-24T01:52:10.312Z,99.40
2018-06-24T01:54:39.681Z,99.50
2018-06-24T01:57:09.324Z,99.60
2018-06-24T01:59:38.612Z,99.90
2018-06-24T02:02:08.030Z,99.90
2018-06-24T02:04:37.428Z,99.90
2018-06-24T02:07:07.987Z,99.90
2018-06-24T02:09:37.405Z,99.90
2018-06-24T02:12:06.891Z,99.90
2018-06-24T02:14:36.372Z,98.90
2018-06-24T02:17:05.755Z,99.90
2018-06-24T02:19:35.069Z,99.90
2018-06-24T02:22:04.376Z,99.90
2018-06-24T02:24:33.633Z,99.90
2018-06-24T02:27:03.001Z,99.90
2018-06-24T02:29:32.170Z,99.90
2018-06-24T02:32:02.018Z,99.90
2018-06-24T02:34:31.211Z,99.90
2018-06-24T02:37:00.516Z,99.90
2018-06-24T02:39:29.823Z,99.90
2018-06-24T02:41:59.049Z,99.90
2018-06-24T02:44:28.182Z,99.90
2018-06-24T02:46:57.444Z,99.50
2018-06-24T02:49:26.900Z,98.60
2018-06-24T02:51:55.980Z,99.90
2018-06-24T02:54:25.228Z,99.90
2018-06-24T02:56:54.301Z,99.90
2018-06-24T02:59:23.543Z,99.90
2018-06-24T03:01:52.611Z,99.90
2018-06-24T03:04:21.873Z,99.90
2018-06-24T03:06:51.137Z,99.90
2018-06-24T03:09:20.486Z,99.90
2018-06-24T03:11:49.673Z,99.90
2018-06-24T03:14:18.912Z,99.80
2018-06-24T03:16:48.199Z,99.90
2018-06-24T03:19:17.437Z,99.90
2018-06-24T03:21:46.700Z,99.90
2018-06-24T03:24:16.155Z,99.90
2018-06-24T03:26:45.424Z,99.90
2018-06-24T03:29:14.580Z,99.90
2018-06-24T03:31:44.404Z,99.90
2018-06-24T03:34:13.720Z,99.90
2018-06-24T03:36:43.244Z,99.90
2018-06-24T03:39:12.980Z,99.90
2018-06-24T03:41:42.593Z,99.90
2018-06-24T03:44:12.029Z,99.90
2018-06-24T03:46:41.424Z,99.90
2018-06-24T03:49:10.656Z,99.60
2018-06-24T03:51:39.934Z,99.60
2018-06-24T03:54:09.389Z,99.20
2018-06-24T03:56:38.912Z,98.80
2018-06-24T03:59:08.398Z,98.30
2018-06-24T04:04:06.936Z,98.80
2018-06-24T04:06:36.236Z,95.60
2018-06-24T04:09:07.544Z,99.90
2018-06-24T04:11:37.208Z,99.90
2018-06-24T04:14:06.880Z,99.90
2018-06-24T04:16:36.301Z,99.90
2018-06-24T04:19:05.923Z,99.90
2018-06-24T04:21:35.274Z,99.90
2018-06-24T04:24:04.437Z,99.90
2018-06-24T04:26:33.708Z,99.90
2018-06-24T04:29:03.058Z,99.20
2018-06-24T04:31:32.509Z,98.70
2018-06-24T04:34:01.801Z,98.80
2018-06-24T04:36:31.025Z,96.50
2018-06-24T04:39:00.208Z,99.90
2018-06-24T04:41:29.444Z,99.90
2018-06-24T04:43:58.631Z,99.90
2018-06-24T04:46:27.762Z,95.30
2018-06-24T04:48:56.957Z,99.10
2018-06-24T04:51:26.302Z,97.30
2018-06-24T04:53:55.614Z,96.50
2018-06-24T04:56:25.017Z,95.60
2018-06-24T04:58:54.301Z,94.30
2018-06-24T05:01:23.929Z,99.20
2018-06-24T05:03:53.217Z,97.80
2018-06-24T05:06:22.906Z,97.00
2018-06-24T05:08:52.067Z,96.20
2018-06-24T05:11:21.239Z,95.00
2018-06-24T05:13:50.408Z,91.60
2018-06-24T05:16:19.700Z,86.70
2018-06-24T05:18:49.198Z,89.60
2018-06-24T05:21:18.319Z,94.80
2018-06-24T05:23:47.552Z,99.20
2018-06-24T05:26:16.981Z,98.30
2018-06-24T05:28:46.300Z,97.50
2018-06-24T05:31:15.574Z,97.70
2018-06-24T05:33:45.333Z,99.90
2018-06-24T05:36:14.532Z,99.20
2018-06-24T05:38:43.991Z,98.80
2018-06-24T05:41:13.360Z,98.00
2018-06-24T05:43:42.758Z,94.20
2018-06-24T05:46:11.986Z,96.90
2018-06-24T05:48:41.197Z,90.00
2018-06-24T05:51:10.582Z,93.90
2018-06-24T05:53:40.417Z,93.70
2018-06-24T05:56:09.935Z,94.50
2018-06-24T05:58:39.393Z,96.70
2018-06-24T06:01:08.959Z,97.80
2018-06-24T06:03:38.340Z,97.50
2018-06-24T06:06:07.907Z,98.10
2018-06-24T06:08:37.461Z,94.80
2018-06-24T06:11:07.134Z,92.80
2018-06-24T06:13:36.625Z,96.00
2018-06-24T06:16:06.255Z,97.20
2018-06-24T06:18:35.616Z,99.90
2018-06-24T06:21:04.928Z,98.50
2018-06-24T06:23:34.368Z,99.90
2018-06-24T06:26:03.783Z,95.90
2018-06-24T06:28:33.073Z,99.90
2018-06-24T06:31:02.373Z,99.20
2018-06-24T06:33:31.436Z,99.90
2018-06-24T06:36:00.666Z,98.80
2018-06-24T06:38:29.856Z,98.80
2018-06-24T06:40:59.008Z,99.90
2018-06-24T06:43:28.228Z,96.80
2018-06-24T06:45:57.529Z,96.00
2018-06-24T06:48:26.596Z,99.90
2018-06-24T06:50:55.855Z,96.40
2018-06-24T06:53:24.918Z,95.80
2018-06-24T06:55:54.161Z,98.10
2018-06-24T06:58:23.240Z,99.90
2018-06-24T07:00:52.483Z,99.90
2018-06-24T07:03:21.794Z,95.80
2018-06-24T07:05:51.007Z,93.30
2018-06-24T07:08:20.192Z,92.10
2018-06-24T07:10:49.520Z,94.30
2018-06-24T07:13:18.924Z,91.80
2018-06-24T07:15:48.159Z,93.40
2018-06-24T07:18:17.636Z,95.60
2018-06-24T07:20:46.982Z,92.90
2018-06-24T07:23:16.156Z,93.10
2018-06-24T07:25:45.500Z,90.70
2018-06-24T07:28:14.788Z,90.10
2018-06-24T07:30:44.008Z,92.00
2018-06-24T07:33:13.474Z,94.40
2018-06-24T07:35:42.826Z,86.90
2018-06-24T07:38:12.315Z,91.70
2018-06-24T07:40:41.706Z,93.50
2018-06-24T07:43:11.068Z,93.30
2018-06-24T07:45:40.537Z,92.50
2018-06-24T07:48:10.017Z,90.30
2018-06-24T07:50:39.368Z,88.60
2018-06-24T07:53:09.000Z,82.00
2018-06-24T07:55:38.432Z,85.50
2018-06-24T07:58:07.926Z,85.10
2018-06-24T08:00:37.328Z,88.00
2018-06-24T08:03:06.711Z,88.00
2018-06-24T08:05:36.390Z,87.00
2018-06-24T08:08:05.697Z,90.80
2018-06-24T08:10:34.889Z,86.80
2018-06-24T08:13:04.085Z,90.70
2018-06-24T08:15:33.349Z,90.20
2018-06-24T08:18:02.806Z,85.50
2018-06-24T08:20:32.071Z,88.00
2018-06-24T08:23:01.217Z,86.50
2018-06-24T08:25:30.515Z,84.60
2018-06-24T08:27:59.889Z,84.90
2018-06-24T08:30:29.168Z,78.90
2018-06-24T08:32:58.601Z,82.40
2018-06-24T08:35:27.913Z,85.00
2018-06-24T08:37:57.360Z,81.50
2018-06-24T08:40:26.715Z,81.80
2018-06-24T08:42:55.868Z,81.30
2018-06-24T08:45:25.104Z,85.20
2018-06-24T08:47:54.348Z,81.80
2018-06-24T08:50:23.767Z,81.60
2018-06-24T08:52:52.943Z,88.20
2018-06-24T08:55:22.285Z,82.70
2018-06-24T08:57:51.601Z,81.70
2018-06-24T09:00:21.017Z,84.10
2018-06-24T09:02:50.497Z,79.30
2018-06-24T09:05:19.821Z,76.30
2018-06-24T09:07:49.124Z,74.90
2018-06-24T09:10:18.476Z,72.40
2018-06-24T09:12:47.799Z,75.80
2018-06-24T09:15:17.174Z,71.50
2018-06-24T09:17:46.366Z,69.70
2018-06-24T09:20:15.626Z,65.90
2018-06-24T09:22:44.785Z,73.60
2018-06-24T09:25:14.073Z,72.30
2018-06-24T09:27:43.487Z,68.80
2018-06-24T09:32:41.852Z,69.50
2018-06-24T09:35:11.424Z,67.30
2018-06-24T09:37:40.804Z,68.20
2018-06-24T09:40:10.182Z,65.30
2018-06-24T09:42:39.622Z,65.30
2018-06-24T09:45:09.265Z,58.30
2018-06-24T09:47:38.722Z,60.90
2018-06-24T09:50:08.858Z,58.80
2018-06-24T09:52:38.512Z,61.60
2018-06-24T09:55:08.003Z,62.10
2018-06-24T09:57:37.442Z,59.30
2018-06-24T10:00:11.046Z,60.10
2018-06-24T10:02:40.696Z,59.50
2018-06-24T10:05:10.186Z,56.30
2018-06-24T10:07:39.629Z,54.80
2018-06-24T10:10:08.985Z,55.80
2018-06-24T10:12:38.361Z,56.10
2018-06-24T10:15:08.257Z,57.00
2018-06-24T10:17:37.749Z,56.60
2018-06-24T10:20:07.501Z,54.50
2018-06-24T10:22:37.164Z,56.10
2018-06-24T10:25:06.374Z,53.80
2018-06-24T10:27:35.584Z,56.90
2018-06-24T10:30:05.567Z,57.70
2018-06-24T10:32:34.820Z,58.30
2018-06-24T10:35:04.454Z,56.10
2018-06-24T10:37:33.529Z,56.60
2018-06-24T10:40:02.921Z,57.60
2018-06-24T10:42:32.145Z,55.90
2018-06-24T10:45:01.307Z,56.90
2018-06-24T10:47:30.567Z,56.80
2018-06-24T10:49:59.855Z,55.80
2018-06-24T10:52:29.269Z,54.30
2018-06-24T10:54:58.676Z,55.50
2018-06-24T10:57:28.116Z,55.90
2018-06-24T10:59:57.345Z,58.20
2018-06-24T11:02:26.637Z,58.70
2018-06-24T11:04:55.932Z,59.60
2018-06-24T11:07:25.189Z,57.70
2018-06-24T11:09:54.441Z,59.00
2018-06-24T11:12:23.695Z,60.00
2018-06-24T11:14:53.080Z,59.70
2018-06-24T11:17:22.365Z,59.20
2018-06-24T11:19:51.376Z,58.20
2018-06-24T11:22:20.836Z,57.50
2018-06-24T11:24:49.998Z,60.10
2018-06-24T11:27:19.467Z,58.80
2018-06-24T11:29:48.757Z,59.30
2018-06-24T11:32:18.049Z,59.00
2018-06-24T11:34:47.284Z,59.60
2018-06-24T11:37:16.687Z,58.20
2018-06-24T11:39:46.019Z,59.20
2018-06-24T11:42:15.089Z,62.50
2018-06-24T11:44:44.344Z,56.60
2018-06-24T11:47:14.049Z,58.70
2018-06-24T11:49:43.268Z,59.20
2018-06-24T11:52:12.564Z,58.30
2018-06-24T11:54:41.906Z,56.00
2018-06-24T11:57:11.285Z,54.00
2018-06-24T11:59:40.646Z,58.60
2018-06-24T12:02:09.926Z,57.10
2018-06-24T12:04:39.514Z,57.30
2018-06-24T12:07:09.044Z,57.20
2018-06-24T12:09:38.755Z,58.50
2018-06-24T12:12:08.319Z,58.70
2018-06-24T12:14:37.705Z,58.30
2018-06-24T12:17:07.292Z,61.00
2018-06-24T12:19:37.275Z,60.00
2018-06-24T12:22:06.765Z,59.80
2018-06-24T12:24:36.261Z,59.10
2018-06-24T12:27:06.258Z,62.10
2018-06-24T12:29:35.786Z,63.30
2018-06-24T12:32:05.222Z,63.10
2018-06-24T12:34:34.805Z,64.70
2018-06-24T12:37:03.970Z,63.40
2018-06-24T12:39:33.524Z,62.70
2018-06-24T12:42:02.923Z,65.80
2018-06-24T12:44:32.661Z,67.00
2018-06-24T12:47:01.846Z,67.40
2018-06-24T12:49:31.388Z,66.60
2018-06-24T12:52:00.860Z,67.50
2018-06-24T12:54:30.221Z,68.70
2018-06-24T12:56:59.524Z,69.10
2018-06-24T12:59:29.161Z,70.80
2018-06-24T13:01:58.460Z,68.90
2018-06-24T13:04:27.712Z,71.50
2018-06-24T13:06:57.328Z,71.80
2018-06-24T13:09:26.825Z,70.40
2018-06-24T13:11:56.188Z,72.60
2018-06-24T13:14:25.503Z,72.50
2018-06-24T13:16:54.856Z,71.80
2018-06-24T13:19:24.008Z,73.60
2018-06-24T13:21:53.267Z,73.40
2018-06-24T13:24:22.433Z,74.50
2018-06-24T13:26:51.601Z,74.50
2018-06-24T13:29:21.188Z,71.00
2018-06-24T13:31:50.616Z,72.10
2018-06-24T13:34:19.893Z,72.00
2018-06-24T13:36:49.048Z,74.10
2018-06-24T13:39:18.220Z,71.60
2018-06-24T13:41:47.471Z,69.80
2018-06-24T13:44:16.651Z,74.50
2018-06-24T13:46:45.899Z,73.70
2018-06-24T13:49:15.185Z,73.20
2018-06-24T13:51:44.617Z,72.50
2018-06-24T13:54:14.024Z,72.40
2018-06-24T13:56:43.579Z,72.20
2018-06-24T13:59:12.984Z,72.10
2018-06-24T14:01:42.551Z,72.60
2018-06-24T14:04:11.973Z,74.70
2018-06-24T14:06:41.826Z,75.20
2018-06-24T14:09:12.993Z,74.80
2018-06-24T14:11:42.343Z,74.90
2018-06-24T14:14:12.017Z,73.80
2018-06-24T14:16:41.421Z,73.10
2018-06-24T14:19:11.116Z,75.20
2018-06-24T14:21:40.564Z,78.10
2018-06-24T14:24:10.006Z,77.40
2018-06-24T14:26:39.289Z,78.00
2018-06-24T14:29:08.984Z,78.30
2018-06-24T14:31:38.358Z,76.80
2018-06-24T14:34:07.884Z,74.70
2018-06-24T14:36:37.652Z,79.70
2018-06-24T14:39:09.535Z,80.30
2018-06-24T14:41:39.385Z,81.90
2018-06-24T14:44:08.998Z,82.50
2018-06-24T14:46:38.422Z,81.00
2018-06-24T14:51:36.696Z,81.40
2018-06-24T14:54:06.584Z,86.00
2018-06-24T14:56:35.913Z,85.40
2018-06-24T14:59:05.596Z,84.30
2018-06-24T15:01:34.677Z,85.00
2018-06-24T15:04:03.888Z,87.70
2018-06-24T15:06:33.161Z,85.80
2018-06-24T15:09:02.453Z,87.20
2018-06-24T15:11:31.788Z,82.40
2018-06-24T15:14:01.195Z,84.70
2018-06-24T15:16:30.632Z,82.10
2018-06-24T15:18:59.763Z,83.60
2018-06-24T15:21:29.045Z,85.50
2018-06-24T15:23:58.660Z,83.90
2018-06-24T15:26:27.997Z,83.40
2018-06-24T15:28:57.217Z,84.20
2018-06-24T15:31:26.656Z,86.20
2018-06-24T15:33:56.360Z,84.60
2018-06-24T15:36:25.540Z,85.20
2018-06-24T15:38:55.308Z,86.30
2018-06-24T15:41:24.597Z,85.90
2018-06-24T15:43:54.225Z,90.20
2018-06-24T15:46:23.641Z,90.70
2018-06-24T15:48:52.806Z,91.90
2018-06-24T15:51:22.047Z,93.70
2018-06-24T15:53:51.469Z,93.80
2018-06-24T15:56:20.891Z,92.50
2018-06-24T15:58:50.169Z,93.00
2018-06-24T16:01:19.613Z,94.30
2018-06-24T16:03:48.888Z,96.40
2018-06-24T16:06:18.140Z,95.80
2018-06-24T16:08:47.200Z,93.00
2018-06-24T16:11:16.357Z,94.50
2018-06-24T16:13:45.960Z,93.60
2018-06-24T16:16:15.581Z,92.50
2018-06-24T16:18:44.913Z,91.40
2018-06-24T16:21:14.620Z,90.60
2018-06-24T16:23:44.053Z,90.10
2018-06-24T16:26:13.469Z,89.20
2018-06-24T16:28:42.748Z,90.90
2018-06-24T16:31:12.085Z,92.40
2018-06-24T16:33:41.357Z,93.00
2018-06-24T16:36:11.001Z,92.40
2018-06-24T16:38:40.264Z,92.20
2018-06-24T16:41:09.600Z,91.20
2018-06-24T16:43:39.582Z,90.70
2018-06-24T16:46:08.783Z,93.10
2018-06-24T16:48:38.084Z,92.50
2018-06-24T16:51:07.400Z,92.40
2018-06-24T16:53:36.665Z,95.20
2018-06-24T16:56:06.296Z,96.10
2018-06-24T16:58:35.867Z,95.00
2018-06-24T17:01:05.140Z,95.20
2018-06-24T17:03:34.681Z,92.70
2018-06-24T17:06:16.729Z,92.80
2018-06-24T17:08:46.245Z,97.60
2018-06-24T17:11:15.966Z,97.20
2018-06-24T17:13:45.464Z,95.70
2018-06-24T17:16:14.855Z,93.90
2018-06-24T17:18:44.536Z,92.20
2018-06-24T17:21:14.005Z,91.50
2018-06-24T17:23:43.590Z,92.10
2018-06-24T17:26:13.093Z,91.30
2018-06-24T17:28:42.975Z,91.60
2018-06-24T17:31:12.597Z,92.20
2018-06-24T17:33:41.959Z,92.80
2018-06-24T17:36:11.633Z,92.10
2018-06-24T17:38:41.114Z,91.70
2018-06-24T17:41:10.520Z,92.00
2018-06-24T17:43:39.953Z,92.30
2018-06-24T17:46:09.294Z,91.70
2018-06-24T17:48:38.750Z,92.00
2018-06-24T17:51:08.110Z,92.70
2018-06-24T17:53:37.552Z,95.30
2018-06-24T17:56:07.041Z,95.20
2018-06-24T17:58:36.168Z,95.10
2018-06-24T18:01:05.505Z,97.80
2018-06-24T18:03:34.809Z,98.00
2018-06-24T18:06:04.280Z,97.70
2018-06-24T18:08:33.589Z,96.50
2018-06-24T18:11:03.082Z,97.50
2018-06-24T18:13:32.549Z,96.60
2018-06-24T18:16:02.080Z,97.40
2018-06-24T18:18:31.505Z,96.80
2018-06-24T18:21:00.859Z,96.00
2018-06-24T18:23:30.016Z,95.60
2018-06-24T18:25:59.383Z,95.90
2018-06-24T18:28:28.756Z,96.70
2018-06-24T18:30:58.161Z,97.60
2018-06-24T18:33:27.592Z,96.50
2018-06-24T18:35:56.989Z,95.10
2018-06-24T18:38:26.133Z,97.50
2018-06-24T18:43:24.488Z,99.00
2018-06-24T18:45:53.832Z,99.90
2018-06-24T18:48:23.149Z,98.60
2018-06-24T18:50:52.456Z,97.00
2018-06-24T18:53:21.621Z,96.10
2018-06-24T18:55:51.188Z,96.50
2018-06-24T18:58:20.704Z,98.80
2018-06-24T19:00:50.025Z,98.40
2018-06-24T19:03:19.289Z,99.90
2018-06-24T19:05:48.551Z,99.90
2018-06-24T19:08:17.749Z,99.90
2018-06-24T19:10:47.229Z,99.90
2018-06-24T19:13:16.789Z,99.90
2018-06-24T19:15:46.286Z,99.90
2018-06-24T19:18:15.809Z,99.90
2018-06-24T19:20:45.357Z,99.90
2018-06-24T19:23:14.859Z,99.90
2018-06-24T19:25:44.382Z,99.70
2018-06-24T19:28:13.863Z,99.90
2018-06-24T19:30:43.664Z,99.90
2018-06-24T19:33:13.151Z,99.90
2018-06-24T19:35:42.441Z,99.90
2018-06-24T19:38:12.238Z,99.90
2018-06-24T19:40:41.767Z,99.90
2018-06-24T19:43:11.320Z,99.90
2018-06-24T19:45:41.407Z,99.90
2018-06-24T19:48:11.944Z,99.90
2018-06-24T19:50:41.860Z,99.90
2018-06-24T19:53:11.712Z,99.90
2018-06-24T19:55:41.270Z,99.90
2018-06-24T19:58:11.082Z,99.90
2018-06-24T20:00:40.644Z,99.90
2018-06-24T20:03:09.969Z,99.90
2018-06-24T20:05:39.200Z,99.90
2018-06-24T20:08:10.010Z,99.70
2018-06-24T20:10:39.441Z,99.90
2018-06-24T20:13:08.601Z,99.10
2018-06-24T20:15:38.101Z,99.80
2018-06-24T20:18:07.509Z,99.90
2018-06-24T20:20:36.850Z,99.90
2018-06-24T20:23:06.125Z,99.90
2018-06-24T20:25:35.307Z,99.90
2018-06-24T20:28:04.428Z,98.80
2018-06-24T20:30:33.705Z,99.80
2018-06-24T20:33:02.972Z,99.40
2018-06-24T20:35:32.204Z,99.90
2018-06-24T20:38:01.777Z,99.90
2018-06-24T20:40:31.197Z,99.90
2018-06-24T20:43:00.503Z,98.90
2018-06-24T20:45:30.340Z,99.80
2018-06-24T20:47:59.654Z,99.90
2018-06-24T20:50:28.876Z,99.10
2018-06-24T20:52:58.152Z,99.90
2018-06-24T20:55:27.299Z,99.90
2018-06-24T20:57:56.724Z,99.90
2018-06-24T21:00:25.937Z,99.90
2018-06-24T21:02:55.310Z,99.90
2018-06-24T21:05:24.572Z,99.90
2018-06-24T21:07:53.854Z,99.90
2018-06-24T21:10:23.184Z,99.90
2018-06-24T21:12:52.460Z,99.90
2018-06-24T21:15:21.818Z,99.90
2018-06-24T21:17:50.993Z,99.90
2018-06-24T21:20:20.532Z,99.90
2018-06-24T21:22:49.816Z,99.90
2018-06-24T21:25:19.286Z,99.90
2018-06-24T21:27:48.743Z,99.90
2018-06-24T21:32:51.972Z,99.90
2018-06-24T21:35:21.307Z,99.90
2018-06-24T21:37:50.472Z,99.90
2018-06-24T21:40:19.820Z,99.90
2018-06-24T21:42:48.986Z,99.90
2018-06-24T21:45:18.364Z,99.90
2018-06-24T21:47:47.441Z,99.90
2018-06-24T21:50:16.717Z,99.90
2018-06-24T21:52:46.124Z,99.90
2018-06-24T21:55:15.313Z,99.90
2018-06-24T21:57:44.700Z,99.90
2018-06-24T22:00:13.873Z,99.90
2018-06-24T22:02:43.319Z,99.90
2018-06-24T22:05:12.500Z,99.90
2018-06-24T22:07:41.737Z,99.90
2018-06-24T22:10:11.026Z,99.90
2018-06-24T22:12:40.266Z,99.90
2018-06-24T22:15:09.421Z,99.90
2018-06-24T22:17:45.018Z,99.90
2018-06-24T22:20:14.344Z,99.90
2018-06-24T22:22:43.672Z,99.90
2018-06-24T22:25:12.980Z,99.90
2018-06-24T22:27:42.284Z,99.90
2018-06-24T22:30:11.434Z,99.90
2018-06-24T22:32:40.713Z,99.90
2018-06-24T22:35:09.985Z,99.90
2018-06-24T22:37:39.249Z,99.90
2018-06-24T22:40:08.536Z,99.90
2018-06-24T22:42:38.056Z,99.90
2018-06-24T22:45:07.642Z,99.90
2018-06-24T22:47:37.091Z,99.90
2018-06-24T22:50:06.487Z,99.90
2018-06-24T22:52:35.715Z,99.90
2018-06-24T22:55:04.881Z,99.90
2018-06-24T22:57:34.374Z,99.90
2018-06-24T23:00:10.802Z,99.90
2018-06-24T23:02:40.618Z,99.90
2018-06-24T23:05:10.485Z,99.90
2018-06-24T23:07:40.756Z,99.90
2018-06-24T23:10:10.001Z,99.90
2018-06-24T23:12:39.238Z,99.90
2018-06-24T23:15:09.833Z,99.90
2018-06-24T23:17:39.444Z,99.90
2018-06-24T23:20:09.524Z,99.90
2018-06-24T23:22:38.681Z,99.90
2018-06-24T23:25:08.036Z,99.90
2018-06-24T23:27:37.429Z,99.90
2018-06-24T23:30:07.228Z,99.90
2018-06-24T23:32:36.540Z,99.90
2018-06-24T23:35:06.017Z,99.90
2018-06-24T23:37:35.297Z,99.90
2018-06-24T23:40:04.969Z,99.80
2018-06-24T23:42:34.229Z,99.90
2018-06-24T23:45:03.473Z,99.90
2018-06-24T23:47:32.788Z,99.90
2018-06-24T23:50:02.091Z,99.90
2018-06-24T23:52:31.364Z,99.90
2018-06-24T23:55:00.600Z,99.90
2018-06-24T23:57:29.773Z,99.90
2018-06-24T23:59:59.012Z,99.90
